Alges — CSPH — position and weather

sailwx.info

Track history (hours):
 
Tides and Currents Weather Stations Pressure Air Temp Water Temp Dewpoint Dewpoint Depression Visibility Wind Speed Wind Dir Waves Ship Positions

Alges

Last reported at 2016-Nov-11 09:09 UTC. Time now 2016-Dec-07 16:23 UTC.
Position N 38°42' W 009°09'.
Warning: this ship's position is 26 days out of date.

Length 45 m; draft 24.8 m.

Type: Passenger vessel. MMSI: 263700008.

Date/timePositionNaut miles runAvg speedWind from/ knotsBaromVisibWave heightAir tempDewpointWater temp
2016-Nov-11 09:09N 38°42' W 009°09'4 0.3
2016-Nov-10 20:28N 38°39' W 009°06'0 0.1
2016-Nov-10 18:31N 38°39' W 009°06'3 1.5
2016-Nov-10 16:32N 38°41' W 009°08'1 0.2
2016-Nov-10 09:30N 38°40' W 009°07'2 2.3
2016-Nov-10 08:27N 38°42' W 009°09'4 3.6
2016-Nov-10 07:29N 38°39' W 009°06'1 0.1
2016-Nov-09 20:11N 38°40' W 009°07'3 6.7
2016-Nov-09 19:48N 38°42' W 009°09'0 0.1
2016-Nov-09 18:57N 38°42' W 009°09'2 4.8
2016-Nov-09 18:26N 38°40' W 009°07'2 2.3
2016-Nov-09 17:20N 38°42' W 009°09'4 2.0
2016-Nov-09 15:33N 38°39' W 009°06'0 0.1
2016-Nov-09 13:15N 38°39' W 009°06'0 0.1
2016-Nov-09 08:26N 38°39' W 009°06'2 2.1
2016-Nov-09 07:33N 38°40' W 009°07'1 0.1
2016-Nov-08 23:28N 38°40' W 009°06'1 0.6
2016-Nov-08 22:17N 38°39' W 009°06'0 0.1
2016-Nov-08 21:19N 38°39' W 009°06'4 1.9
2016-Nov-08 19:19N 38°42' W 009°09'0 0.1
2016-Nov-08 18:32N 38°42' W 009°09'4 3.3
2016-Nov-08 17:26N 38°39' W 009°06'4 0.4
2016-Nov-08 09:23N 38°42' W 009°08'3 0.2
2016-Nov-07 19:33N 38°39' W 009°06'4 1.6
2016-Nov-07 17:19N 38°42' W 009°09'1 0.7
2016-Nov-07 16:33N 38°42' W 009°08'3 3.3
2016-Nov-07 15:29N 38°39' W 009°06'4 3.4
2016-Nov-07 14:17N 38°42' W 009°09'4 5.6
2016-Nov-07 13:33N 38°39' W 009°06'4 1.0
2016-Nov-07 09:21N 38°42' W 009°09'0 0.3
2016-Nov-07 08:31N 38°42' W 009°09'2 2.4
2016-Nov-07 07:33N 38°40' W 009°07'  
Track history (hours):
 
Tides and Currents Weather Stations Pressure Air Temp Water Temp Dewpoint Dewpoint Depression Visibility Wind Speed Wind Dir Waves Ship Positions

Alges

Last reported at 2016-Nov-11 09:09 UTC. Time now 2016-Dec-07 16:23 UTC.
Position N 38°42' W 009°09'.
Warning: this ship's position is 26 days out of date.

Length 45 m; draft 24.8 m.

Type: Passenger vessel. MMSI: 263700008.

Date/timePositionNaut miles runAvg speedWind from/ knotsBaromVisibWave heightAir tempDewpointWater temp
2016-Nov-11 09:09N 38°42' W 009°09'4 0.3
2016-Nov-10 20:28N 38°39' W 009°06'0 0.1
2016-Nov-10 18:31N 38°39' W 009°06'3 1.5
2016-Nov-10 16:32N 38°41' W 009°08'1 0.2
2016-Nov-10 09:30N 38°40' W 009°07'2 2.3
2016-Nov-10 08:27N 38°42' W 009°09'4 3.6
2016-Nov-10 07:29N 38°39' W 009°06'1 0.1
2016-Nov-09 20:11N 38°40' W 009°07'3 6.7
2016-Nov-09 19:48N 38°42' W 009°09'0 0.1
2016-Nov-09 18:57N 38°42' W 009°09'2 4.8
2016-Nov-09 18:26N 38°40' W 009°07'2 2.3
2016-Nov-09 17:20N 38°42' W 009°09'4 2.0
2016-Nov-09 15:33N 38°39' W 009°06'0 0.1
2016-Nov-09 13:15N 38°39' W 009°06'0 0.1
2016-Nov-09 08:26N 38°39' W 009°06'2 2.1
2016-Nov-09 07:33N 38°40' W 009°07'1 0.1
2016-Nov-08 23:28N 38°40' W 009°06'1 0.6
2016-Nov-08 22:17N 38°39' W 009°06'0 0.1
2016-Nov-08 21:19N 38°39' W 009°06'4 1.9
2016-Nov-08 19:19N 38°42' W 009°09'0 0.1
2016-Nov-08 18:32N 38°42' W 009°09'4 3.3
2016-Nov-08 17:26N 38°39' W 009°06'4 0.4
2016-Nov-08 09:23N 38°42' W 009°08'3 0.2
2016-Nov-07 19:33N 38°39' W 009°06'4 1.6
2016-Nov-07 17:19N 38°42' W 009°09'1 0.7
2016-Nov-07 16:33N 38°42' W 009°08'3 3.3
2016-Nov-07 15:29N 38°39' W 009°06'4 3.4
2016-Nov-07 14:17N 38°42' W 009°09'4 5.6
2016-Nov-07 13:33N 38°39' W 009°06'4 1.0
2016-Nov-07 09:21N 38°42' W 009°09'0 0.3
2016-Nov-07 08:31N 38°42' W 009°09'2 2.4
2016-Nov-07 07:33N 38°40' W 009°07'  

Dump ship's entire track history